Latest Weather Observations for Longreach

IDQ60801

Issued at 11:02 pm EST Friday 17 August 2018 (issued every 10 minutes, with the page automatically refreshed every 10 minutes)

About weather observations | Map of weather stations | Latest weather observations for QLD | Other Formats
Station Details ID: 036031 Name: LONGREACH AERO Lat: -23.44 Lon: 144.28 Height: 192.2 m
Data from the previous 72 hours. | See also: Recent months at Longreach
Date/Time
EST
Temp
°C
App
Temp
°C
Dew
Point
°C
Rel
Hum
%
Delta-T
°C
Wind Press
QNH
hPa
Press
MSL
hPa
Rain since
9am
mm
Dir  Spd
km/h
Gust
km/h
Spd
kts
Gust
kts
17/11:00pm 16.7 11.9 -10.0 15 9.3 SSW 9 11 5 6 1016.5 1016.1 0.0
17/10:30pm 18.0 12.9 -9.0 15 9.8 SSW 11 13 6 7 1016.3 1015.9 0.0
17/10:00pm 17.5 12.8 -9.4 15 9.6 SSW 9 11 5 6 1016.4 1016.0 0.0
17/09:30pm 17.2 11.6 -10.5 14 9.7 S 13 17 7 9 1016.3 1015.9 0.0
17/09:00pm 18.4 12.9 -9.5 14 10.1 SSW 13 13 7 7 1016.0 1015.6 0.0
17/08:30pm 19.4 14.4 -8.7 14 10.5 SSW 11 13 6 7 1015.7 1015.3 0.0
17/08:00pm 20.2 15.1 -9.1 13 10.9 SSW 11 13 6 7 1015.4 1015.0 0.0
17/07:30pm 22.0 16.6 -8.7 12 11.7 SSW 13 15 7 8 1014.9 1014.6 0.0
17/07:00pm 22.5 17.4 -9.4 11 12.1 SSW 11 13 6 7 1014.4 1014.1 0.0
17/06:30pm 24.3 19.6 -9.2 10 13.0 SSW 9 13 5 7 1014.0 1013.7 0.0
17/06:00pm 26.3 21.2 -9.1 9 14.1 SSW 11 15 6 8 1013.8 1013.5 0.0
17/05:30pm 27.7 22.3 -8.0 9 14.7 S 13 17 7 9 1013.5 1013.2 0.0
17/05:00pm 28.3 22.8 -9.1 8 15.1 SSW 13 20 7 11 1013.4 1013.1 0.0
17/04:30pm 28.5 22.3 -8.9 8 15.2 S 17 28 9 15 1013.3 1012.9 0.0
17/04:00pm 28.9 23.5 -8.6 8 15.4 SSW 13 19 7 10 1013.3 1012.9 0.0
17/03:30pm 28.9 23.1 -8.6 8 15.4 S 15 26 8 14 1013.4 1013.1 0.0
17/03:00pm 28.9 23.6 -7.1 9 15.2 SSE 13 24 7 13 1013.6 1013.3 0.0
17/02:30pm 29.2 23.2 -6.9 9 15.3 SSW 17 22 9 12 1013.9 1013.6 0.0
17/02:00pm 29.3 24.8 -6.8 9 15.4 NE 9 13 5 7 1014.2 1013.9 0.0
17/01:30pm 28.5 23.2 -7.4 9 15.0 W 13 22 7 12 1014.7 1014.4 0.0
17/01:00pm 28.3 22.6 -7.6 9 14.9 SW 15 22 8 12 1015.3 1014.9 0.0
17/12:30pm 27.9 23.3 -7.9 9 14.7 NW 9 11 5 6 1015.6 1015.2 0.0
17/12:00pm 27.5 23.1 -5.6 11 14.1 SE 9 15 5 8 1016.1 1015.7 0.0
17/11:30am 26.9 22.0 -7.2 10 14.1 E 11 15 6 8 1016.7 1016.3 0.0
17/11:00am 26.1 20.6 -5.5 12 13.4 E 15 19 8 10 1017.1 1016.7 0.0
17/10:30am 25.0 19.5 -5.3 13 12.7 E 15 19 8 10 1017.5 1017.1 0.0
17/10:00am 22.8 17.6 -6.1 14 11.7 ESE 13 17 7 9 1017.6 1017.2 0.0
17/09:30am 20.6 16.2 -6.1 16 10.6 ESE 9 11 5 6 1017.4 1017.0 0.0
17/09:00am 18.4 14.3 -6.3 18 9.5 ENE 7 7 4 4 1017.4 1017.0 0.0
17/08:30am 15.2 12.4 -6.9 21 8.1 CALM 0 6 0 3 1017.4 1017.0 0.0
17/08:00am 13.2 8.7 -6.9 24 7.2 NNE 9 11 5 6 1017.1 1016.7 0.0
17/07:30am 10.2 6.1 -7.0 29 5.9 W 7 9 4 5 1016.7 1016.3 0.0
17/07:00am 8.1 3.8 -8.4 30 5.3 WNW 7 7 4 4 1016.4 1016.0 0.0
17/06:30am 9.5 5.3 -7.6 29 5.8 WSW 7 9 4 5 1015.8 1015.4 0.0
17/06:00am 11.7 7.1 -7.6 25 6.7 SW 9 11 5 6 1015.4 1015.0 0.0
17/05:30am 12.4 6.7 -7.6 24 7.0 SE 15 17 8 9 1014.9 1014.6 0.0
17/05:00am 11.9 5.4 -8.5 23 7.0 ESE 19 20 10 11 1014.7 1014.4 0.0
17/04:30am 13.8 7.8 -6.9 23 7.5 ESE 17 20 9 11 1014.7 1014.4 0.0
17/04:00am 12.9 7.2 -7.7 23 7.2 SE 15 15 8 8 1014.7 1014.4 0.0
17/03:30am 13.9 8.2 -7.4 22 7.6 SE 15 17 8 9 1014.7 1014.4 0.0
17/03:00am 14.3 8.6 -7.7 21 7.9 SE 15 17 8 9 1014.8 1014.5 0.0
17/02:30am 14.7 9.0 -7.4 21 8.0 SSE 15 15 8 8 1014.8 1014.5 0.0
17/02:00am 14.6 9.3 -7.4 21 7.9 SSE 13 15 7 8 1014.9 1014.6 0.0
17/01:30am 14.3 9.0 -7.1 22 7.8 SSE 13 13 7 7 1015.1 1014.7 0.0
17/01:00am 15.2 10.0 -6.3 22 8.0 SSE 13 15 7 8 1015.1 1014.7 0.0
17/12:30am 16.1 10.5 -6.2 21 8.4 SSE 15 15 8 8 1015.1 1014.7 0.0
17/12:00am 16.1 11.1 -4.4 24 8.0 SSE 13 15 7 8 1015.1 1014.7 0.0
 
Date/Time
EST
Temp
°C
App
Temp
°C
Dew
Point
°C
Rel
Hum
%
Delta-T
°C
Wind Press
QNH
hPa
Press
MSL
hPa
Rain since
9am
mm
Dir  Spd
km/h
Gust
km/h
Spd
kts
Gust
kts
16/11:30pm 16.0 11.0 -4.5 24 8.0 S 13 17 7 9 1015.2 1014.8 0.0
16/11:00pm 14.0 9.8 -4.2 28 7.0 S 9 11 5 6 1014.9 1014.6 0.0
16/10:30pm 16.2 12.0 -3.8 25 8.0 SSE 9 11 5 6 1014.9 1014.6 0.0
16/10:00pm 16.3 11.8 -3.2 26 7.9 SE 11 11 6 6 1014.9 1014.6 0.0
16/09:30pm 18.2 13.8 -2.1 25 8.5 SSE 11 11 6 6 1015.1 1014.7 0.0
16/09:00pm 17.6 14.9 -2.1 26 8.2 NNE 2 9 1 5 1014.8 1014.5 0.0
16/08:30pm 18.3 15.4 -3.8 22 9.0 NNE 2 6 1 3 1014.7 1014.4 0.0
16/08:00pm 21.1 17.1 -2.0 21 10.0 ENE 9 11 5 6 1014.4 1014.1 0.0
16/07:30pm 20.9 17.1 -3.6 19 10.3 ESE 7 9 4 5 1014.2 1013.9 0.0
16/07:00pm 21.3 18.6 -2.5 20 10.2 ESE 2 6 1 3 1014.0 1013.7 0.0
16/06:30pm 23.3 19.8 -1.6 19 11.1 E 7 7 4 4 1013.6 1013.3 0.0
16/06:00pm 26.2 23.9 -2.4 15 12.8 CALM 0 0 0 0 1013.3 1012.9 0.0
16/05:30pm 27.6 24.2 -2.3 14 13.6 N 6 7 3 4 1013.2 1012.8 0.0
16/05:00pm 27.9 24.5 -2.0 14 13.7 SSE 6 9 3 5 1013.2 1012.8 0.0
16/04:30pm 28.1 24.7 -1.9 14 13.8 SE 6 9 3 5 1013.2 1012.8 0.0
16/04:00pm 28.3 24.4 -1.7 14 13.9 W 9 15 5 8 1013.3 1012.9 0.0
16/03:30pm 28.7 24.4 -1.4 14 14.0 NW 11 17 6 9 1013.5 1013.2 0.0
16/03:00pm 28.5 24.2 -1.6 14 13.9 WNW 11 15 6 8 1013.8 1013.5 0.0
16/02:30pm 28.0 24.2 -1.0 15 13.5 NE 9 17 5 9 1014.2 1013.9 0.0
16/02:00pm 28.3 23.7 -0.8 15 13.6 ENE 13 20 7 11 1014.8 1014.5 0.0
16/01:30pm 27.9 23.3 -1.1 15 13.5 N 13 17 7 9 1015.3 1014.9 0.0
16/01:00pm 27.5 23.4 -0.5 16 13.1 W 11 15 6 8 1015.9 1015.5 0.0
16/12:30pm 26.9 22.7 -1.0 16 12.9 NNW 11 20 6 11 1016.5 1016.1 0.0
16/12:00pm 26.1 21.5 -0.8 17 12.4 N 13 19 7 10 1017.0 1016.6 0.0
16/11:30am 25.8 21.4 0.5 19 11.9 N 13 19 7 10 1017.6 1017.2 0.0
16/11:00am 25.2 20.9 0.7 20 11.5 N 13 17 7 9 1018.2 1017.9 0.0
16/10:30am 23.1 18.6 -0.4 21 10.7 NNE 13 17 7 9 1018.7 1018.4 0.0
16/10:00am 21.3 16.7 -1.3 22 9.9 NNE 13 17 7 9 1018.9 1018.6 0.0
16/09:30am 19.7 15.7 -2.6 22 9.4 NNE 9 15 5 8 1018.8 1018.5 0.0
16/09:00am 18.1 14.0 -3.3 23 8.8 NE 9 13 5 7 1018.6 1018.3 0.0
16/08:30am 13.9 9.9 -5.3 26 7.2 SE 7 7 4 4 1018.3 1018.0 0.0
16/08:00am 10.8 6.3 -6.5 29 6.1 SSE 9 11 5 6 1018.1 1017.8 0.0
16/07:30am 9.2 5.3 -4.7 37 5.0 S 7 9 4 5 1017.9 1017.6 0.0
16/07:00am 7.3 4.7 -4.7 42 4.2 CALM 0 0 0 0 1017.5 1017.1 0.0
16/06:30am 6.3 1.7 -7.6 36 4.5 NW 9 13 5 7 1017.2 1016.8 0.0
16/06:00am 7.7 3.2 -7.1 34 4.9 SE 9 11 5 6 1017.0 1016.6 0.0
16/05:30am 7.9 3.0 -7.4 33 5.1 SE 11 11 6 6 1016.8 1016.4 0.0
16/05:00am 9.6 4.8 -6.3 32 5.5 SSE 11 11 6 6 1016.7 1016.3 0.0
16/04:30am 9.7 5.3 -5.8 33 5.5 SSE 9 9 5 5 1016.7 1016.3 0.0
16/04:00am 9.3 4.9 -5.7 34 5.3 S 9 11 5 6 1016.7 1016.3 0.0
16/03:30am 9.9 5.5 -5.6 33 5.5 SSW 9 9 5 5 1016.8 1016.4 0.0
16/03:00am 10.6 7.5 -6.2 30 5.9 ENE 2 6 1 3 1016.6 1016.2 0.0
16/02:30am 12.4 8.0 -5.6 28 6.6 NE 9 11 5 6 1016.7 1016.3 0.0
16/02:00am 13.1 7.9 -5.9 26 7.0 NE 13 15 7 8 1016.7 1016.3 0.0
16/01:30am 14.9 9.5 -4.9 25 7.6 NE 15 17 8 9 1016.9 1016.5 0.0
16/01:00am 15.6 9.8 -4.3 25 7.8 NE 17 17 9 9 1017.2 1016.8 0.0
16/12:30am 15.9 10.5 -4.1 25 7.9 NE 15 15 8 8 1017.3 1016.9 0.0
16/12:00am 17.3 12.1 -2.4 26 8.1 NE 15 17 8 9 1017.4 1017.0 0.0
 
Date/Time
EST
Temp
°C
App
Temp
°C
Dew
Point
°C
Rel
Hum
%
Delta-T
°C
Wind Press
QNH
hPa
Press
MSL
hPa
Rain since
9am
mm
Dir  Spd
km/h
Gust
km/h
Spd
kts
Gust
kts
15/11:30pm 14.7 9.9 -2.7 30 7.0 NE 13 15 7 8 1017.6 1017.2 0.0
15/11:00pm 14.0 8.8 -2.4 32 6.6 ENE 15 17 8 9 1017.7 1017.3 0.0
15/10:30pm 14.1 9.3 -2.3 32 6.6 ESE 13 15 7 8 1017.8 1017.4 0.0
15/10:00pm 14.6 10.6 -1.9 32 6.7 E 9 9 5 5 1017.7 1017.3 0.0
15/09:30pm 15.3 11.3 -2.6 29 7.2 NE 9 11 5 6 1017.5 1017.1 0.0
15/09:00pm 16.8 12.2 -0.9 30 7.5 NE 13 17 7 9 1017.3 1016.9 0.0
15/08:30pm 17.3 15.3 -0.4 30 7.6 CALM 0 0 0 0 1017.3 1016.9 0.0
15/08:00pm 18.2 16.3 0.4 30 7.9 CALM 0 0 0 0 1017.1 1016.7 0.0
15/07:30pm 19.6 17.3 0.6 28 8.5 N 2 6 1 3 1016.7 1016.3 0.0
15/07:00pm 20.4 17.0 -0.8 24 9.3 NNE 7 9 4 5 1016.3 1015.9 0.0
15/06:30pm 21.9 18.6 -0.1 23 10.0 N 7 9 4 5 1016.0 1015.6 0.0
15/06:00pm 24.2 20.4 -0.9 19 11.4 N 9 11 5 6 1016.0 1015.6 0.0
15/05:30pm 26.4 21.9 -0.6 17 12.5 N 13 15 7 8 1016.2 1015.8 0.0
15/05:00pm 27.0 22.2 -0.1 17 12.7 NNW 15 19 8 10 1016.5 1016.1 0.0
15/04:30pm 27.4 23.0 0.2 17 12.9 N 13 19 7 10 1016.7 1016.3 0.0
15/04:00pm 27.4 22.0 -1.5 15 13.3 NNW 17 32 9 17 1016.8 1016.4 0.0
15/03:30pm 28.2 22.4 0.0 16 13.4 NNW 20 30 11 16 1017.0 1016.6 0.0
15/03:00pm 27.2 22.1 0.8 18 12.6 N 17 30 9 16 1017.4 1017.0 0.0
15/02:30pm 27.8 22.4 1.3 18 12.9 NNE 19 32 10 17 1017.8 1017.4 0.0
15/02:00pm 27.0 21.8 -0.1 17 12.7 N 17 32 9 17 1018.4 1018.1 0.0
15/01:30pm 26.2 20.3 -0.8 17 12.5 N 20 28 11 15 1018.9 1018.6 0.0
15/01:00pm 25.8 20.4 -1.1 17 12.3 NNE 17 22 9 12 1019.8 1019.5 0.0
15/12:30pm 24.8 20.6 -1.1 18 11.8 N 11 22 6 12 1020.4 1020.1 0.0
15/12:00pm 24.8 19.9 -0.4 19 11.6 NNE 15 22 8 12 1021.0 1020.6 0.0
15/11:30am 24.5 18.7 -1.3 18 11.6 NNE 19 26 10 14 1021.5 1021.1 0.0
15/11:00am 24.1 18.3 -0.2 20 11.1 NNE 20 30 11 16 1021.9 1021.5 0.0
15/10:30am 22.2 17.0 0.1 23 10.1 NNE 17 26 9 14 1022.2 1021.8 0.0
15/10:00am 20.1 14.1 -1.7 23 9.4 NNE 20 26 11 14 1022.3 1021.9 0.0
15/09:30am 19.0 12.9 -2.6 23 9.1 NNE 20 28 11 15 1022.1 1021.7 0.0
15/09:00am 16.9 12.0 -3.2 25 8.1 NNE 13 17 7 9 1021.9 1021.5 0.0
15/08:30am 13.8 9.1 -5.3 26 7.2 NE 11 15 6 8 1021.8 1021.4 0.0
15/08:00am 9.6 6.4 -7.1 30 5.7 E 2 7 1 4 1021.5 1021.1 0.0
15/07:30am 6.6 3.6 -9.3 31 4.9 CALM 0 0 0 0 1021.4 1021.0 0.0
15/07:00am 4.9 0.5 -10.0 33 4.4 E 7 9 4 5 1021.2 1020.8 0.0
15/06:30am 6.3 1.6 -9.2 32 4.8 ESE 9 11 5 6 1020.9 1020.5 0.0
15/06:00am 6.7 2.0 -8.8 32 4.9 ESE 9 11 5 6 1020.6 1020.2 0.0
15/05:30am 7.5 2.9 -8.1 32 5.1 E 9 11 5 6 1020.4 1020.1 0.0
15/05:00am 6.7 1.6 -8.8 32 4.9 E 11 15 6 8 1020.2 1019.9 0.0
15/04:30am 7.6 1.8 -8.4 31 5.2 ESE 15 17 8 9 1020.4 1020.1 0.0
15/04:00am 7.5 2.6 -7.3 34 4.9 SE 11 13 6 7 1020.7 1020.3 0.0
15/03:30am 7.6 2.2 -8.4 31 5.2 ESE 13 15 7 8 1020.8 1020.4 0.0
15/03:00am 7.5 2.5 -8.5 31 5.1 ESE 11 13 6 7 1021.0 1020.6 0.0
15/02:30am 7.3 3.1 -7.9 33 4.9 SE 7 7 4 4 1021.3 1020.9 0.0
15/02:00am 8.5 3.9 -8.5 29 5.5 SE 9 9 5 5 1021.5 1021.1 0.0
15/01:30am 8.5 3.5 -8.5 29 5.5 ESE 11 11 6 6 1021.6 1021.2 0.0
15/01:00am 10.4 5.1 -7.3 28 6.1 SSE 13 13 7 7 1021.7 1021.3 0.0
15/12:30am 8.1 3.8 -8.4 30 5.4 SE 7 11 4 6 1021.7 1021.3 0.0
15/12:00am 9.3 5.0 -8.7 27 5.9 SE 7 9 4 5 1021.5 1021.1 0.0
 
Date/Time
EST
Temp
°C
App
Temp
°C
Dew
Point
°C
Rel
Hum
%
Delta-T
°C
Wind Press
QNH
hPa
Press
MSL
hPa
Rain since
9am
mm
Dir  Spd
km/h
Gust
km/h
Spd
kts
Gust
kts
14/11:30pm 9.4 6.4 -9.6 25 6.1 CALM 0 6 0 3 1021.4 1021.0 0.0

Other Formats:

Comma delimited format used in spreadsheet applications
http://www.bom.gov.au/fwo/IDQ60801/IDQ60801.94346.axf

JavaScript Object Notation format (JSON) in row-major order
http://www.bom.gov.au/fwo/IDQ60801/IDQ60801.94346.json